Time;durP1;ratioP1;P1;durP2;ratioP2;P2;SDS_P1;SDS_P2;PMS_P1;PMS_P2;Temp;Humidity;BMP_temperature;BMP_pressure;BME280_temperature;BME280_humidity;BME280_pressure;Samples;Min_cycle;Max_cycle;Signal;HPM_P1;HPM_P2
2023/06/21 00:01:38;;;;;;;21.00;14.27;;;;;;;-141.97;77.35;47546.00;4994105;28;20172;-80
2023/06/21 00:04:08;;;;;;;20.17;14.30;;;;;;;-141.97;77.06;47538.28;4995626;28;20214;-77
2023/06/21 00:06:37;;;;;;;21.57;13.97;;;;;;;-141.97;76.71;47519.06;4995233;28;20213;-80
2023/06/21 00:09:05;;;;;;;21.57;14.40;;;;;;;-141.97;76.12;47532.53;4995164;28;20227;-80
2023/06/21 00:11:31;;;;;;;20.63;13.97;;;;;;;-141.97;75.97;47542.16;4995446;28;20243;-80
2023/06/21 00:13:57;;;;;;;22.07;14.10;;;;;;;-141.97;76.60;47676.69;4995043;28;20190;-78
2023/06/21 00:16:23;;;;;;;21.70;14.97;;;;;;;-141.97;76.57;47553.69;4995204;28;20164;-81
2023/06/21 00:18:48;;;;;;;22.43;14.30;;;;;;;-141.97;76.08;47519.06;4995446;28;20182;-79
2023/06/21 00:21:15;;;;;;;22.77;15.17;;;;;;;-141.97;75.35;47463.34;4994982;28;20226;-79
2023/06/21 00:23:44;;;;;;;24.87;15.00;;;;;;;-141.97;74.70;47497.94;4995066;28;20168;-79
2023/06/21 00:26:09;;;;;;;25.87;16.30;;;;;;;-141.97;74.39;47436.44;4995231;28;20199;-79
2023/06/21 00:28:35;;;;;;;23.50;16.10;;;;;;;-141.97;74.92;47496.00;4993617;28;20629;-80
2023/06/21 00:31:00;;;;;;;22.97;15.60;;;;;;;-141.97;75.04;47532.53;4995300;28;20255;-78
2023/06/21 00:33:26;;;;;;;21.93;15.20;;;;;;;-141.97;74.48;47505.63;4995090;28;20230;-77
2023/06/21 00:35:52;;;;;;;25.37;16.20;;;;;;;-141.97;74.17;47299.97;4997417;28;20194;-79
2023/06/21 00:38:17;;;;;;;24.47;16.00;;;;;;;-141.97;74.93;47511.38;5014189;28;20173;-79
2023/06/21 00:40:43;;;;;;;24.30;16.07;;;;;;;-141.97;75.11;47507.53;5013278;28;20178;-80
2023/06/21 00:43:08;;;;;;;23.93;16.23;;;;;;;-141.97;74.86;47534.44;5014930;28;20637;-79
2023/06/21 00:45:45;;;;;;;22.63;15.93;;;;;;;-141.97;74.26;47522.91;5014642;28;20167;-79
2023/06/21 00:48:10;;;;;;;25.20;15.93;;;;;;;-141.97;74.00;47630.56;5014575;28;20208;-81
2023/06/21 00:50:38;;;;;;;23.47;16.13;;;;;;;-141.97;74.00;47505.63;5012923;28;20612;-80
2023/06/21 00:53:04;;;;;;;24.80;15.47;;;;;;;-141.97;73.59;47488.31;5014326;28;20162;-80
2023/06/21 00:55:29;;;;;;;21.93;15.40;;;;;;;-141.97;73.60;47472.94;5013754;28;20213;-80
2023/06/21 00:57:57;;;;;;;24.20;16.27;;;;;;;-141.97;73.96;47478.72;5013559;28;20171;-81
2023/06/21 01:00:23;;;;;;;22.43;15.37;;;;;;;-141.97;73.77;47542.16;5028137;28;20547;-79
2023/06/21 01:02:53;;;;;;;21.73;14.87;;;;;;;-141.97;74.38;47536.38;5013539;28;20166;-80
2023/06/21 01:05:22;;;;;;;22.23;15.13;;;;;;;-141.97;75.17;47615.19;5012829;28;20175;-79
2023/06/21 01:08:02;;;;;;;22.47;15.67;;;;;;;-141.97;75.67;47738.19;5011054;28;20206;-82
2023/06/21 01:10:53;;;;;;;23.00;15.87;;;;;;;-141.97;75.89;47707.44;5013580;28;20647;-79
2023/06/21 01:13:36;;;;;;;23.47;15.83;;;;;;;-141.97;75.93;47538.28;5014847;28;20238;-81
2023/06/21 01:16:09;;;;;;;21.23;15.33;;;;;;;-141.97;75.99;47534.44;5013397;28;20159;-81
2023/06/21 01:18:36;;;;;;;21.83;15.63;;;;;;;-141.97;76.00;47726.66;5014226;28;20196;-81
2023/06/21 01:21:06;;;;;;;21.10;14.87;;;;;;;-141.97;75.70;47538.28;5013863;28;20190;-81
2023/06/21 01:23:50;;;;;;;22.70;15.57;;;;;;;-141.97;75.27;47561.38;5013806;28;20159;-81
2023/06/21 01:26:44;;;;;;;21.50;15.37;;;;;;;-141.97;74.96;47521.00;5014016;28;20154;-81
2023/06/21 01:29:16;;;;;;;21.27;14.73;;;;;;;-141.97;75.24;47511.38;5013590;28;20191;-81
2023/06/21 01:31:45;;;;;;;22.57;14.87;;;;;;;-141.97;76.86;47542.16;5013549;28;20255;-80
2023/06/21 01:34:12;;;;;;;21.37;15.10;;;;;;;-141.97;76.30;47478.72;5012426;28;20240;-80
2023/06/21 01:36:39;;;;;;;21.10;14.90;;;;;;;-141.97;75.57;47761.25;5013543;28;20635;-80
2023/06/21 01:39:08;;;;;;;18.23;13.90;;;;;;;-141.97;75.56;47453.72;5013336;28;20221;-81
2023/06/21 01:41:35;;;;;;;18.47;13.43;;;;;;;-141.97;75.43;47459.50;5012996;28;20155;-80
2023/06/21 01:44:01;;;;;;;19.30;13.90;;;;;;;-141.97;76.63;47549.84;5012849;28;20657;-81
2023/06/21 01:46:27;;;;;;;17.90;13.53;;;;;;;-141.97;78.10;47647.84;5013091;28;20690;-80
2023/06/21 01:48:54;;;;;;;19.33;13.77;;;;;;;-141.97;79.17;47492.16;5012983;28;20222;-81
2023/06/21 01:51:22;;;;;;;18.57;13.47;;;;;;;-141.97;79.56;47661.31;5013282;28;20170;-80
2023/06/21 01:53:48;;;;;;;22.63;14.40;;;;;;;-141.97;78.96;47509.47;5012518;28;20201;-81
2023/06/21 01:56:17;;;;;;;19.43;14.33;;;;;;;-141.97;79.27;47649.78;5013000;28;20170;-79
2023/06/21 01:58:45;;;;;;;19.70;13.73;;;;;;;-141.97;80.07;47534.44;5013289;28;20233;-80
2023/06/21 02:01:11;;;;;;;20.90;14.03;;;;;;;-141.97;80.67;47503.69;5012884;28;20628;-80
2023/06/21 02:03:40;;;;;;;20.90;14.23;;;;;;;-141.97;79.99;47572.91;5012872;28;20159;-80
2023/06/21 02:06:08;;;;;;;20.50;13.33;;;;;;;-141.97;80.40;47546.00;5027925;28;20262;-79
2023/06/21 02:08:34;;;;;;;18.87;13.53;;;;;;;-141.97;79.94;47726.66;5012439;28;20226;-79
2023/06/21 02:11:03;;;;;;;19.17;13.63;;;;;;;-141.97;79.39;47667.06;5012224;28;20162;-80
2023/06/21 02:13:28;;;;;;;18.53;13.53;;;;;;;-141.97;78.52;47532.53;5012748;28;20190;-79
2023/06/21 02:15:54;;;;;;;19.53;13.60;;;;;;;-141.97;78.77;47546.00;5012431;28;20162;-79
2023/06/21 02:18:26;;;;;;;16.83;12.83;;;;;;;-141.97;77.93;47517.16;5012530;28;20209;-80
2023/06/21 02:20:52;;;;;;;19.30;13.17;;;;;;;-141.97;77.51;47424.91;5012531;28;20163;-79
2023/06/21 02:23:18;;;;;;;18.73;13.43;;;;;;;-141.97;77.51;47522.91;5012466;28;20229;-79
2023/06/21 02:25:43;;;;;;;21.23;13.80;;;;;;;-141.97;77.18;47544.06;5012182;28;20210;-81
2023/06/21 02:28:09;;;;;;;19.53;13.63;;;;;;;-141.97;77.18;47565.22;5012829;28;20198;-80
2023/06/21 02:30:34;;;;;;;18.03;13.20;;;;;;;-141.97;77.74;47576.75;5012323;28;20605;-81
2023/06/21 02:33:00;;;;;;;20.70;14.07;;;;;;;-141.97;78.88;47574.81;5012358;28;20166;-81
2023/06/21 02:35:25;;;;;;;19.90;14.13;;;;;;;-141.97;79.49;47557.53;5011078;28;20179;-80
2023/06/21 02:37:51;;;;;;;19.03;13.13;;;;;;;-141.97;79.35;47551.75;5012611;28;20238;-81
2023/06/21 02:40:17;;;;;;;19.30;13.27;;;;;;;-141.97;79.98;47436.44;5012460;28;20636;-81
2023/06/21 02:42:42;;;;;;;19.37;13.27;;;;;;;-141.97;79.83;47463.34;5011589;28;20159;-81
2023/06/21 02:45:11;;;;;;;21.27;13.47;;;;;;;-141.97;79.71;47569.06;5011932;28;20158;-81
2023/06/21 02:47:36;;;;;;;22.10;13.57;;;;;;;-141.97;81.11;47684.38;5012534;28;20264;-80
2023/06/21 02:50:03;;;;;;;21.73;13.57;;;;;;;-141.97;81.60;47557.53;5011575;28;20175;-80
2023/06/21 02:52:29;;;;;;;21.93;14.57;;;;;;;-141.97;81.65;47497.94;5012211;28;20257;-81
2023/06/21 02:54:54;;;;;;;19.67;13.70;;;;;;;-141.97;81.15;47592.13;5011946;28;20205;-80
2023/06/21 02:57:20;;;;;;;22.37;14.27;;;;;;;-141.97;80.68;47480.63;5011302;28;20231;-80
2023/06/21 02:59:48;;;;;;;19.27;13.73;;;;;;;-141.97;80.15;47711.28;5011252;28;20232;-80
2023/06/21 03:02:14;;;;;;;19.27;13.80;;;;;;;-141.97;81.11;47565.22;5011273;28;20587;-80
2023/06/21 03:04:39;;;;;;;19.73;13.23;;;;;;;-141.97;81.18;47472.94;5011974;28;20171;-81
2023/06/21 03:07:05;;;;;;;19.37;13.47;;;;;;;-141.97;81.80;47565.22;5011353;28;20194;-81
2023/06/21 03:09:32;;;;;;;21.87;14.27;;;;;;;-141.97;81.46;47772.78;5010423;28;20573;-83
2023/06/21 03:11:57;;;;;;;23.07;15.00;;;;;;;-141.97;82.39;47561.38;5011948;28;20205;-80
2023/06/21 03:14:23;;;;;;;23.57;14.73;;;;;;;-141.97;82.45;47565.22;5011223;28;20683;-79
2023/06/21 03:16:49;;;;;;;19.73;13.97;;;;;;;-141.97;82.04;47494.09;5011288;28;20174;-79
2023/06/21 03:19:15;;;;;;;22.77;14.20;;;;;;;-141.97;82.09;47561.38;5011283;28;20179;-80
2023/06/21 03:21:40;;;;;;;20.13;14.43;;;;;;;-141.97;82.00;47565.22;5011294;28;20179;-81
2023/06/21 03:24:07;;;;;;;22.03;13.80;;;;;;;-141.97;81.90;47576.75;5014998;28;20186;-80
2023/06/21 03:26:35;;;;;;;23.30;13.97;;;;;;;-141.97;81.28;47547.91;5015691;28;20584;-78
2023/06/21 03:29:02;;;;;;;20.93;13.40;;;;;;;-141.97;80.96;47607.50;5015334;28;20186;-79
2023/06/21 03:31:28;;;;;;;22.27;14.57;;;;;;;-141.97;81.06;47588.28;5015666;28;20159;-79
2023/06/21 03:33:53;;;;;;;21.20;14.13;;;;;;;-141.97;81.09;47569.06;5015437;28;20181;-79
2023/06/21 03:36:19;;;;;;;23.97;14.70;;;;;;;-141.97;81.78;47511.38;5015789;28;20182;-79
2023/06/21 03:38:44;;;;;;;19.67;13.87;;;;;;;-141.97;82.08;47542.16;5014560;28;20166;-80
2023/06/21 03:41:10;;;;;;;20.70;13.57;;;;;;;-141.97;81.73;47542.16;5015356;28;20240;-78
2023/06/21 03:43:35;;;;;;;21.80;14.07;;;;;;;-141.97;80.19;47497.94;5014824;28;20546;-77
2023/06/21 03:46:01;;;;;;;20.97;13.60;;;;;;;-141.97;79.08;47569.06;5013948;28;20547;-79
2023/06/21 03:48:26;;;;;;;21.47;13.50;;;;;;;-141.97;77.91;47592.13;5015469;28;20217;-80
2023/06/21 03:50:52;;;;;;;19.17;13.30;;;;;;;-141.97;77.15;47588.28;5015348;28;20251;-79
2023/06/21 03:53:17;;;;;;;18.33;13.60;;;;;;;-141.97;76.75;47569.06;5015204;28;20631;-80
2023/06/21 03:55:43;;;;;;;17.93;12.83;;;;;;;-141.97;76.09;47530.59;5015074;28;20264;-80
2023/06/21 03:58:12;;;;;;;20.43;13.80;;;;;;;-141.97;76.34;47546.00;5013638;28;20175;-80
2023/06/21 04:00:37;;;;;;;18.87;13.60;;;;;;;-141.97;77.06;47534.44;5015363;28;20159;-79
2023/06/21 04:03:03;;;;;;;20.93;14.23;;;;;;;-141.97;77.18;47751.66;5015068;28;20181;-79
2023/06/21 04:05:28;;;;;;;20.07;13.60;;;;;;;-141.97;77.25;47570.97;5015035;28;20155;-78
2023/06/21 04:07:54;;;;;;;19.00;13.40;;;;;;;-141.97;75.85;47546.00;4995214;28;20574;-79
2023/06/21 04:10:19;;;;;;;19.73;14.30;;;;;;;-141.97;75.81;47555.59;4994971;28;20246;-79
2023/06/21 04:12:45;;;;;;;20.37;13.03;;;;;;;-141.97;74.69;47534.44;4995660;28;20646;-79
2023/06/21 04:15:11;;;;;;;21.00;13.57;;;;;;;-141.97;73.88;47572.91;4995209;28;20597;-79
2023/06/21 04:17:37;;;;;;;24.20;14.30;;;;;;;-141.97;72.48;47565.22;4995119;28;20179;-79
2023/06/21 04:20:07;;;;;;;17.87;13.33;;;;;;;-141.97;73.36;47561.38;4995197;28;20589;-79
2023/06/21 04:22:33;;;;;;;24.97;14.97;;;;;;;-141.97;75.23;47657.47;4994932;28;20183;-79
2023/06/21 04:24:58;;;;;;;20.10;13.57;;;;;;;-141.97;76.65;47549.84;5010135;28;20171;-79
2023/06/21 04:27:24;;;;;;;20.17;13.93;;;;;;;-141.97;76.22;47582.50;4994902;28;20194;-80
2023/06/21 04:29:49;;;;;;;19.73;14.13;;;;;;;-141.97;75.76;47572.91;4994701;28;20164;-79
2023/06/21 04:32:14;;;;;;;20.37;14.07;;;;;;;-141.97;75.23;47549.84;4995088;28;20174;-81
2023/06/21 04:34:43;;;;;;;23.37;13.63;;;;;;;-141.97;75.15;47553.69;4994869;28;20547;-79
2023/06/21 04:37:09;;;;;;;20.20;13.67;;;;;;;-141.97;74.36;47494.09;4994875;28;20170;-77
2023/06/21 04:39:35;;;;;;;21.57;13.90;;;;;;;-141.97;74.29;47570.97;4994278;28;20310;-80
2023/06/21 04:42:00;;;;;;;23.60;13.67;;;;;;;-141.97;73.93;47595.97;5003232;28;20228;-80
2023/06/21 04:44:27;;;;;;;21.27;13.50;;;;;;;-141.97;73.96;47526.75;5014256;28;20186;-79
2023/06/21 04:46:54;;;;;;;17.90;13.03;;;;;;;-141.97;72.44;47580.59;5014332;28;20578;-80
2023/06/21 04:49:19;;;;;;;19.43;13.27;;;;;;;-141.97;72.94;47580.59;5014454;28;20221;-80
2023/06/21 04:51:45;;;;;;;18.40;13.20;;;;;;;-141.97;72.12;47546.00;5014182;28;20163;-80
2023/06/21 04:54:11;;;;;;;17.87;13.50;;;;;;;-141.97;71.76;47561.38;5014314;28;20262;-79
2023/06/21 04:56:36;;;;;;;20.13;13.33;;;;;;;-141.97;70.29;47565.22;5007198;28;20178;-79
2023/06/21 04:59:03;;;;;;;17.87;13.10;;;;;;;-141.97;69.43;47563.28;4990658;28;20179;-81
2023/06/21 05:01:30;;;;;;;19.13;12.63;;;;;;;-141.97;69.05;47572.91;5009018;28;20178;-79
2023/06/21 05:03:55;;;;;;;17.53;12.37;;;;;;;-141.97;69.76;47715.13;5013257;28;20175;-78
2023/06/21 05:06:23;;;;;;;16.87;12.40;;;;;;;-141.97;69.06;47709.38;5013348;28;20592;-79
2023/06/21 05:08:48;;;;;;;17.93;12.23;;;;;;;-141.97;68.25;47526.75;5013000;28;20360;-81
2023/06/21 05:11:14;;;;;;;16.63;12.67;;;;;;;-141.97;69.36;47551.75;5012710;28;20651;-80
2023/06/21 05:13:39;;;;;;;17.93;13.00;;;;;;;-141.97;68.10;47484.47;5012295;28;20178;-81
2023/06/21 05:16:05;;;;;;;16.53;12.77;;;;;;;-141.97;68.67;47561.38;5013091;28;20167;-81
2023/06/21 05:18:30;;;;;;;18.30;13.00;;;;;;;-141.97;68.79;47574.81;5013532;28;20253;-80
2023/06/21 05:20:55;;;;;;;19.00;13.10;;;;;;;-141.97;67.58;47582.50;5013367;28;20170;-80
2023/06/21 05:23:21;;;;;;;16.73;12.17;;;;;;;-141.97;66.95;47549.84;5012603;28;20199;-80
2023/06/21 05:25:47;;;;;;;18.23;12.53;;;;;;;-141.97;66.70;47538.28;5013071;28;20179;-80
2023/06/21 05:28:12;;;;;;;15.73;11.70;;;;;;;-141.97;66.92;47534.44;5013521;28;20203;-78
2023/06/21 05:30:37;;;;;;;17.57;12.67;;;;;;;-141.97;66.83;47678.63;5027597;28;20209;-79
2023/06/21 05:33:03;;;;;;;17.47;12.43;;;;;;;-141.97;66.51;47557.53;5011956;28;20582;-80
2023/06/21 05:35:28;;;;;;;18.43;12.17;;;;;;;-141.97;65.25;47576.75;5032430;28;20167;-81
2023/06/21 05:37:54;;;;;;;18.90;13.07;;;;;;;-141.97;62.28;47532.53;5015975;28;20175;-81
2023/06/21 05:40:20;;;;;;;23.67;15.50;;;;;;;-141.97;60.85;47542.16;5014370;28;20163;-80
2023/06/21 05:42:46;;;;;;;18.23;12.33;;;;;;;-141.97;59.76;47501.78;5012250;28;20270;-79
2023/06/21 05:45:11;;;;;;;18.07;12.00;;;;;;;-141.97;59.87;47544.06;5012282;28;20661;-81
2023/06/21 05:47:37;;;;;;;21.27;12.17;;;;;;;-141.97;58.57;47532.53;5012635;28;20264;-80
2023/06/21 05:50:03;;;;;;;15.53;11.97;;;;;;;-141.97;57.72;47401.84;5012434;28;20166;-80
2023/06/21 05:52:29;;;;;;;15.73;12.07;;;;;;;-141.97;57.56;47490.25;5012216;28;20662;-79
2023/06/21 05:54:55;;;;;;;16.40;11.90;;;;;;;-141.97;57.57;47557.53;5011793;28;20697;-78
2023/06/21 05:57:21;;;;;;;13.20;11.30;;;;;;;-141.97;57.49;47517.16;5012639;28;20611;-79
2023/06/21 05:59:46;;;;;;;13.13;11.47;;;;;;;-141.97;57.43;47503.69;5004466;28;20265;-80
2023/06/21 06:02:12;;;;;;;14.67;11.50;;;;;;;-141.97;57.81;47476.78;5012379;28;20171;-81
2023/06/21 06:04:38;;;;;;;14.37;11.57;;;;;;;-141.97;57.99;47670.91;5011980;28;20627;-80
2023/06/21 06:07:04;;;;;;;16.00;11.53;;;;;;;-141.97;55.94;47507.53;5011261;28;20174;-81
2023/06/21 06:09:30;;;;;;;17.47;11.63;;;;;;;-141.97;55.23;47669.00;5012561;28;20234;-81
2023/06/21 06:11:56;;;;;;;20.10;11.77;;;;;;;-141.97;54.59;47484.47;5012575;28;20233;-81
2023/06/21 06:14:23;;;;;;;14.83;11.40;;;;;;;-141.97;54.11;47511.38;5013576;28;20174;-81
2023/06/21 06:16:48;;;;;;;14.80;11.50;;;;;;;-141.97;54.69;47417.22;5012975;28;20171;-81
2023/06/21 06:19:14;;;;;;;16.13;11.60;;;;;;;-141.97;54.58;47476.78;5009894;28;20268;-81
2023/06/21 06:21:40;;;;;;;16.53;11.73;;;;;;;-141.97;54.19;47649.78;5007984;28;20179;-81
2023/06/21 06:24:05;;;;;;;17.03;11.40;;;;;;;-141.97;53.04;47497.94;5011838;28;20256;-80
2023/06/21 06:26:31;;;;;;;18.40;11.50;;;;;;;-141.97;52.33;47503.69;5012283;28;20253;-81
2023/06/21 06:29:05;;;;;;;14.73;10.93;;;;;;;-141.97;52.64;47669.00;4998855;28;20217;-83
2023/06/21 06:31:31;;;;;;;14.07;10.87;;;;;;;-141.97;51.87;47499.84;5007139;28;20186;-82
2023/06/21 06:33:56;;;;;;;15.93;10.60;;;;;;;-141.97;50.76;47718.97;5012257;28;20224;-80
2023/06/21 06:36:22;;;;;;;14.50;10.30;;;;;;;-141.97;51.43;47436.44;5011910;28;20190;-80
2023/06/21 06:38:48;;;;;;;13.80;10.53;;;;;;;-141.97;51.01;47422.97;5011049;28;20517;-78
2023/06/21 06:41:15;;;;;;;12.83;10.70;;;;;;;-141.97;50.98;47505.63;5011263;28;20631;-77
2023/06/21 06:43:41;;;;;;;13.80;10.23;;;;;;;-141.97;50.33;47665.16;5011353;28;20650;-80
2023/06/21 06:46:06;;;;;;;12.07;10.23;;;;;;;-141.97;48.80;47503.69;5014055;28;20167;-80
2023/06/21 06:48:32;;;;;;;16.97;10.60;;;;;;;-141.97;48.73;47451.81;5014447;28;20234;-77
2023/06/21 06:50:58;;;;;;;12.93;10.17;;;;;;;-141.97;47.80;47488.31;5014533;28;20599;-79
2023/06/21 06:53:23;;;;;;;15.40;10.13;;;;;;;-141.97;47.40;47457.56;5016100;28;20167;-78
2023/06/21 06:55:50;;;;;;;12.73;10.47;;;;;;;-141.97;47.39;47446.03;5016547;28;20188;-78
2023/06/21 06:58:16;;;;;;;14.65;10.60;;;;;;;-141.97;47.57;47465.25;5015700;28;20199;-78
2023/06/21 07:00:41;;;;;;;13.10;10.50;;;;;;;-141.97;46.79;47449.88;5006448;28;20256;-78
2023/06/21 07:03:07;;;;;;;12.05;9.75;;;;;;;-141.97;45.45;47538.28;5015776;28;20232;-79
2023/06/21 07:05:35;;;;;;;12.90;10.25;;;;;;;-141.97;45.18;47457.56;5016033;28;20507;-78
2023/06/21 07:08:00;;;;;;;13.13;9.98;;;;;;;-141.97;45.00;47442.19;5015242;28;20684;-78
2023/06/21 07:10:26;;;;;;;13.95;10.15;;;;;;;-141.97;44.77;47440.28;5015973;28;20163;-79
2023/06/21 07:12:51;;;;;;;12.43;10.30;;;;;;;-141.97;44.65;47669.00;5019776;28;20198;-77
2023/06/21 07:15:17;;;;;;;12.95;9.63;;;;;;;-141.97;44.28;47424.91;5015791;28;20191;-76
2023/06/21 07:17:42;;;;;;;11.52;9.75;;;;;;;-141.97;44.27;47715.13;5015225;28;20168;-78
2023/06/21 07:20:08;;;;;;;13.27;10.43;;;;;;;-141.97;43.33;47438.34;5015417;28;20183;-78
2023/06/21 07:22:33;;;;;;;18.17;11.27;;;;;;;-141.97;43.12;47451.81;5015020;28;20180;-79
2023/06/21 07:24:59;;;;;;;12.82;9.95;;;;;;;-141.97;43.24;47453.72;5015335;28;20549;-76
2023/06/21 07:27:27;;;;;;;14.35;9.95;;;;;;;-141.97;43.82;47444.13;5015436;28;20275;-78
2023/06/21 07:29:53;;;;;;;10.70;9.10;;;;;;;-141.97;42.51;47432.59;5014887;28;20165;-78
2023/06/21 07:32:18;;;;;;;13.65;9.10;;;;;;;-141.97;42.66;47424.91;5015068;28;20235;-79
2023/06/21 07:34:43;;;;;;;10.75;9.32;;;;;;;-141.97;42.54;47444.13;5014554;28;20646;-78
2023/06/21 07:37:09;;;;;;;10.65;9.38;;;;;;;-141.97;41.43;47419.13;5014171;28;20566;-78
2023/06/21 07:39:34;;;;;;;11.68;9.13;;;;;;;-141.97;40.92;47396.06;5014802;28;20241;-77
2023/06/21 07:42:04;;;;;;;11.52;9.05;;;;;;;-141.97;40.05;47419.13;5012659;28;20174;-79
2023/06/21 07:44:30;;;;;;;10.68;8.55;;;;;;;-141.97;39.30;47384.53;5013526;28;20210;-78
2023/06/21 07:46:55;;;;;;;11.70;8.80;;;;;;;-141.97;39.34;47588.28;5014145;28;20159;-79
2023/06/21 07:49:21;;;;;;;11.57;9.35;;;;;;;-141.97;40.08;47292.28;5014201;28;20186;-80
2023/06/21 07:51:46;;;;;;;13.98;10.27;;;;;;;-141.97;40.00;47407.59;5013899;28;20643;-78
2023/06/21 07:54:12;;;;;;;10.80;9.32;;;;;;;-141.97;39.27;47680.53;5013712;28;20171;-79
2023/06/21 07:56:37;;;;;;;13.25;9.60;;;;;;;-141.97;39.39;47396.06;5014241;28;20254;-79
2023/06/21 07:59:02;;;;;;;14.02;9.88;;;;;;;-141.97;39.36;47273.06;5013987;28;20241;-79
2023/06/21 08:01:28;;;;;;;10.75;9.30;;;;;;;-141.97;38.79;47384.53;5004799;28;20358;-78
2023/06/21 08:03:54;;;;;;;11.57;9.55;;;;;;;-141.97;38.47;47365.31;5013573;28;20274;-78
2023/06/21 08:06:19;;;;;;;11.63;9.93;;;;;;;-141.97;39.01;47371.09;5013830;28;20245;-78
2023/06/21 08:08:44;;;;;;;11.02;9.80;;;;;;;-141.97;38.55;47640.16;5012924;28;20707;-79
2023/06/21 08:11:10;;;;;;;12.55;9.40;;;;;;;-141.97;38.15;47348.03;5012426;28;20177;-79
2023/06/21 08:13:35;;;;;;;10.70;9.60;;;;;;;-141.97;38.17;47388.38;5013043;28;20308;-78
2023/06/21 08:16:00;;;;;;;11.75;9.80;;;;;;;-141.97;38.64;47355.72;5012307;28;20268;-79
2023/06/21 08:18:26;;;;;;;11.00;9.45;;;;;;;-141.97;38.10;47365.31;5013633;28;20548;-78
2023/06/21 08:20:51;;;;;;;14.00;11.18;;;;;;;-141.97;37.28;47340.34;5013646;28;20202;-78
2023/06/21 08:23:17;;;;;;;10.20;8.00;;;;;;;-141.97;36.62;47361.47;5013529;28;20174;-79
2023/06/21 08:25:45;;;;;;;9.82;8.73;;;;;;;-141.97;36.52;47557.53;5013747;28;20197;-79
2023/06/21 08:28:10;;;;;;;9.63;8.63;;;;;;;-141.97;36.04;47378.78;5012965;28;20292;-79
2023/06/21 08:30:35;;;;;;;11.55;8.50;;;;;;;-141.97;35.95;47378.78;5013400;28;20209;-77
2023/06/21 08:33:01;;;;;;;8.88;7.97;;;;;;;-141.97;35.94;47309.59;5012323;28;20169;-79
2023/06/21 08:35:26;;;;;;;12.57;8.45;;;;;;;-141.97;36.18;47346.09;5012903;28;20609;-78
2023/06/21 08:37:59;;;;;;;8.80;7.90;;;;;;;-141.97;35.75;47392.22;5013178;28;20530;-80
2023/06/21 08:40:31;;;;;;;9.10;7.78;;;;;;;-141.97;35.40;47376.84;4999717;28;20248;-81
2023/06/21 08:42:56;;;;;;;8.23;7.38;;;;;;;-141.97;35.08;47355.72;4996128;28;20167;-80
2023/06/21 08:45:22;;;;;;;8.77;6.90;;;;;;;-141.97;34.68;47367.25;5014289;28;20170;-79
2023/06/21 08:47:51;;;;;;;8.35;7.53;;;;;;;-141.97;34.89;47361.47;5013890;28;20197;-81
2023/06/21 08:50:18;;;;;;;9.38;7.95;;;;;;;-141.97;35.19;47509.47;5012416;28;20201;-80
2023/06/21 08:52:45;;;;;;;9.65;7.65;;;;;;;-141.97;34.15;47349.94;5014066;28;20746;-82
2023/06/21 08:55:12;;;;;;;9.60;7.72;;;;;;;-141.97;34.23;47371.09;5013828;28;20174;-82
2023/06/21 08:57:59;;;;;;;9.07;7.72;;;;;;;-141.97;34.56;47346.09;5012526;28;20664;-79
2023/06/21 09:00:34;;;;;;;8.98;7.43;;;;;;;-141.97;34.10;47365.31;5002721;28;20655;-80
2023/06/21 09:03:08;;;;;;;10.20;6.93;;;;;;;-141.97;33.52;47332.66;5012273;28;20178;-80
2023/06/21 09:05:52;;;;;;;9.23;6.65;;;;;;;-141.97;32.78;47349.94;5013687;28;20178;-81
2023/06/21 09:08:19;;;;;;;7.35;6.40;;;;;;;-141.97;32.71;47284.59;5013660;28;20651;-80
2023/06/21 09:10:48;;;;;;;7.95;7.20;;;;;;;-141.97;33.29;47336.50;5013105;28;20246;-83
2023/06/21 09:13:14;;;;;;;8.00;7.20;;;;;;;-141.97;32.75;47365.31;5012648;28;20236;-82
2023/06/21 09:15:40;;;;;;;8.88;6.25;;;;;;;-141.97;31.73;47330.72;5013873;28;20167;-81
2023/06/21 09:18:06;;;;;;;8.82;6.65;;;;;;;-141.97;31.33;47309.59;5013024;28;20182;-82
2023/06/21 09:20:32;;;;;;;8.30;7.20;;;;;;;-141.97;30.31;47419.13;5011041;28;20182;-83
2023/06/21 09:22:58;;;;;;;7.22;6.18;;;;;;;-141.97;30.00;47338.41;5013046;28;20170;-83
2023/06/21 09:25:25;;;;;;;6.78;5.80;;;;;;;-141.97;30.77;47549.84;5008004;28;20183;-82
2023/06/21 09:27:55;;;;;;;7.10;6.22;;;;;;;-141.97;30.88;47561.38;4993697;28;20290;-82
2023/06/21 09:30:22;;;;;;;7.78;6.53;;;;;;;-141.97;30.69;47411.44;4994096;28;20163;-83
2023/06/21 09:32:48;;;;;;;8.18;6.32;;;;;;;-141.97;30.56;47276.91;4994536;28;20251;-81
2023/06/21 09:35:13;;;;;;;6.65;5.47;;;;;;;-141.97;29.78;47446.03;4994194;28;20624;-82
2023/06/21 09:37:41;;;;;;;7.13;5.85;;;;;;;-141.97;30.59;47349.94;5008800;28;20179;-84
2023/06/21 09:40:07;;;;;;;7.15;5.78;;;;;;;-141.97;30.76;47542.16;4993750;28;20164;-81
2023/06/21 09:42:39;;;;;;;8.02;5.80;;;;;;;-141.97;30.75;47371.09;5000856;28;20570;-81
2023/06/21 09:45:11;;;;;;;7.82;7.03;;;;;;;-141.97;30.81;47334.56;5013332;28;20242;-82
2023/06/21 09:47:40;;;;;;;6.55;5.80;;;;;;;-141.97;31.06;47373.00;5012922;28;20191;-83
2023/06/21 09:50:06;;;;;;;7.57;6.15;;;;;;;-141.97;31.41;47211.56;5013391;28;20522;-82
2023/06/21 09:52:31;;;;;;;11.80;6.15;;;;;;;-141.97;31.27;47611.34;5013502;28;20677;-83
2023/06/21 09:54:57;;;;;;;5.72;5.20;;;;;;;-141.97;30.02;47311.50;5013418;28;20174;-81
2023/06/21 09:57:31;;;;;;;7.00;6.20;;;;;;;-141.97;30.77;47292.28;5011665;28;20228;-81
2023/06/21 10:00:05;;;;;;;10.02;5.63;;;;;;;-141.97;30.51;47323.03;5011797;28;20569;-80
2023/06/21 10:02:37;;;;;;;9.85;6.00;;;;;;;-141.97;30.11;47342.25;5013110;28;20158;-81
2023/06/21 10:05:03;;;;;;;6.60;5.95;;;;;;;-141.97;30.21;47294.22;5013124;28;20163;-82
2023/06/21 10:07:29;;;;;;;6.18;5.57;;;;;;;-141.97;30.47;47490.25;5012433;28;20198;-82
2023/06/21 10:09:54;;;;;;;7.32;5.20;;;;;;;-141.97;29.94;47146.22;5012941;28;20229;-83
2023/06/21 10:12:20;;;;;;;8.07;5.88;;;;;;;-141.97;30.38;47161.59;5014136;28;20158;-83
2023/06/21 10:14:45;;;;;;;6.47;5.65;;;;;;;-141.97;30.12;47273.06;5013376;28;20604;-83
2023/06/21 10:17:12;;;;;;;6.25;5.65;;;;;;;-141.97;29.29;47340.34;5012916;28;20521;-82
2023/06/21 10:19:41;;;;;;;6.93;5.38;;;;;;;-141.97;30.28;47165.44;5013128;28;20169;-82
2023/06/21 10:22:13;;;;;;;5.95;5.35;;;;;;;-141.97;29.90;47173.13;5013215;28;20177;-83
2023/06/21 10:24:48;;;;;;;6.30;5.32;;;;;;;-141.97;29.42;47292.28;5011576;28;20175;-82
2023/06/21 10:27:15;;;;;;;8.13;5.82;;;;;;;-141.97;29.58;47323.03;5012767;28;20161;-82
2023/06/21 10:29:43;;;;;;;7.97;6.03;;;;;;;-141.97;29.73;47253.84;5012809;28;20217;-83
2023/06/21 10:32:09;;;;;;;5.60;5.00;;;;;;;-141.97;28.68;47307.66;5011426;28;20205;-84
2023/06/21 10:34:43;;;;;;;6.82;5.57;;;;;;;-141.97;29.24;47299.97;5006586;28;20604;-84
2023/06/21 10:37:21;;;;;;;6.80;5.63;;;;;;;-141.97;29.76;47334.56;5012496;28;20615;-84
2023/06/21 10:39:53;;;;;;;7.95;5.70;;;;;;;-141.97;29.76;47323.03;4987862;28;20239;-84
2023/06/21 10:42:20;;;;;;;7.30;5.50;;;;;;;-141.97;29.39;47334.56;5031248;28;20237;-83
2023/06/21 10:44:47;;;;;;;6.75;5.80;;;;;;;-141.97;29.99;47167.38;5032401;28;20161;-83
2023/06/21 10:47:13;;;;;;;6.72;5.70;;;;;;;-141.97;29.54;47303.81;5032487;28;20204;-83
2023/06/21 10:49:40;;;;;;;6.13;5.32;;;;;;;-141.97;29.51;47565.22;5032180;28;20193;-84
2023/06/21 10:52:06;;;;;;;6.72;5.25;;;;;;;-141.97;28.83;47288.44;5030392;28;20189;-83
2023/06/21 10:54:32;;;;;;;5.35;4.85;;;;;;;-141.97;28.67;47242.31;5032715;28;20638;-84
2023/06/21 10:56:58;;;;;;;5.88;5.03;;;;;;;-141.97;28.87;47257.69;5032355;28;20245;-82
2023/06/21 10:59:26;;;;;;;5.72;5.22;;;;;;;-141.97;29.44;47125.09;5032466;28;20299;-82
2023/06/21 11:01:52;;;;;;;7.50;5.78;;;;;;;-141.97;29.50;47150.06;5031786;28;20763;-83
2023/06/21 11:04:18;;;;;;;6.20;5.60;;;;;;;-141.97;29.08;47351.88;5031137;28;20181;-83
2023/06/21 11:06:44;;;;;;;6.60;5.90;;;;;;;-141.97;29.28;47148.16;5031463;28;20220;-83